METAR Formatted Surface Weather Observation
Issued by NWS

Home | Current Version | Previous Version | Text Only | Print | Product List | Glossary On
Versions: 1 2 3 4 5 6 7 8 9 10 11 12 13 14 15 16
000
SAUS45 KPSR 211459
MTRNYL
METAR KNYL 211457Z 17012KT 10SM CLR 31/21 A2992 RMK AO2 SLP127
T03060206 51021



USA.gov is the U.S. government's official web portal to all federal, state and local government web resources and services.